sensor_id;sensor_type;location;lat;lon;timestamp;P1;durP1;ratioP1;P2;durP2;ratioP2
47381;SDS011;33128;51.580;5.170;2023-01-01T00:01:37;49.20;;;46.20;;
47381;SDS011;33128;51.580;5.170;2023-01-01T00:04:05;48.50;;;45.60;;
47381;SDS011;33128;51.580;5.170;2023-01-01T00:06:32;49.75;;;46.63;;
47381;SDS011;33128;51.580;5.170;2023-01-01T00:08:58;51.55;;;48.25;;
47381;SDS011;33128;51.580;5.170;2023-01-01T00:11:42;51.38;;;48.28;;
47381;SDS011;33128;51.580;5.170;2023-01-01T00:14:11;50.65;;;47.35;;
47381;SDS011;33128;51.580;5.170;2023-01-01T00:16:36;51.65;;;48.08;;
47381;SDS011;33128;51.580;5.170;2023-01-01T00:19:02;51.60;;;48.03;;
47381;SDS011;33128;51.580;5.170;2023-01-01T00:21:27;51.33;;;48.15;;
47381;SDS011;33128;51.580;5.170;2023-01-01T00:23:53;50.25;;;46.58;;
47381;SDS011;33128;51.580;5.170;2023-01-01T00:26:18;52.70;;;47.63;;
47381;SDS011;33128;51.580;5.170;2023-01-01T00:28:44;50.55;;;47.20;;
47381;SDS011;33128;51.580;5.170;2023-01-01T00:31:16;50.83;;;47.17;;
47381;SDS011;33128;51.580;5.170;2023-01-01T00:33:49;50.17;;;47.00;;
47381;SDS011;33128;51.580;5.170;2023-01-01T00:36:16;49.40;;;46.58;;
47381;SDS011;33128;51.580;5.170;2023-01-01T00:38:43;50.35;;;46.85;;
47381;SDS011;33128;51.580;5.170;2023-01-01T00:41:09;51.47;;;47.58;;
47381;SDS011;33128;51.580;5.170;2023-01-01T00:43:35;50.15;;;46.45;;
47381;SDS011;33128;51.580;5.170;2023-01-01T00:46:02;51.17;;;47.67;;
47381;SDS011;33128;51.580;5.170;2023-01-01T00:48:28;50.42;;;47.25;;
47381;SDS011;33128;51.580;5.170;2023-01-01T00:50:54;51.83;;;48.42;;
47381;SDS011;33128;51.580;5.170;2023-01-01T00:53:20;51.22;;;48.13;;
47381;SDS011;33128;51.580;5.170;2023-01-01T00:55:46;51.00;;;47.95;;
47381;SDS011;33128;51.580;5.170;2023-01-01T00:58:14;51.38;;;48.28;;
47381;SDS011;33128;51.580;5.170;2023-01-01T01:00:40;52.08;;;48.95;;
47381;SDS011;33128;51.580;5.170;2023-01-01T01:03:06;52.22;;;49.10;;
47381;SDS011;33128;51.580;5.170;2023-01-01T01:05:33;51.85;;;48.95;;
47381;SDS011;33128;51.580;5.170;2023-01-01T01:08:01;54.10;;;50.80;;
47381;SDS011;33128;51.580;5.170;2023-01-01T01:10:27;53.80;;;50.20;;
47381;SDS011;33128;51.580;5.170;2023-01-01T01:12:52;53.10;;;49.92;;
47381;SDS011;33128;51.580;5.170;2023-01-01T01:15:18;52.72;;;49.72;;
47381;SDS011;33128;51.580;5.170;2023-01-01T01:17:44;53.65;;;50.35;;
47381;SDS011;33128;51.580;5.170;2023-01-01T01:20:10;53.65;;;50.55;;
47381;SDS011;33128;51.580;5.170;2023-01-01T01:22:36;52.28;;;49.25;;
47381;SDS011;33128;51.580;5.170;2023-01-01T01:25:02;51.55;;;48.45;;
47381;SDS011;33128;51.580;5.170;2023-01-01T01:27:29;49.13;;;46.17;;
47381;SDS011;33128;51.580;5.170;2023-01-01T01:29:55;50.83;;;47.10;;
47381;SDS011;33128;51.580;5.170;2023-01-01T01:32:20;49.90;;;46.45;;
47381;SDS011;33128;51.580;5.170;2023-01-01T01:34:46;49.78;;;46.60;;
47381;SDS011;33128;51.580;5.170;2023-01-01T01:37:12;50.28;;;46.17;;
47381;SDS011;33128;51.580;5.170;2023-01-01T01:39:38;49.50;;;45.95;;
47381;SDS011;33128;51.580;5.170;2023-01-01T01:42:04;50.50;;;47.45;;
47381;SDS011;33128;51.580;5.170;2023-01-01T01:47:13;50.45;;;47.38;;
47381;SDS011;33128;51.580;5.170;2023-01-01T01:50:03;49.85;;;46.92;;
47381;SDS011;33128;51.580;5.170;2023-01-01T01:52:30;49.22;;;46.35;;
47381;SDS011;33128;51.580;5.170;2023-01-01T01:54:58;50.05;;;46.83;;
47381;SDS011;33128;51.580;5.170;2023-01-01T01:57:26;52.42;;;49.00;;
47381;SDS011;33128;51.580;5.170;2023-01-01T01:59:53;51.67;;;48.83;;
47381;SDS011;33128;51.580;5.170;2023-01-01T02:02:31;53.22;;;50.03;;
47381;SDS011;33128;51.580;5.170;2023-01-01T02:05:01;55.50;;;51.90;;
47381;SDS011;33128;51.580;5.170;2023-01-01T02:07:27;54.55;;;51.03;;
47381;SDS011;33128;51.580;5.170;2023-01-01T02:09:56;54.17;;;50.83;;
47381;SDS011;33128;51.580;5.170;2023-01-01T02:12:25;56.42;;;52.85;;
47381;SDS011;33128;51.580;5.170;2023-01-01T02:14:52;54.38;;;51.47;;
47381;SDS011;33128;51.580;5.170;2023-01-01T02:17:30;55.80;;;52.15;;
47381;SDS011;33128;51.580;5.170;2023-01-01T02:20:10;56.10;;;52.85;;
47381;SDS011;33128;51.580;5.170;2023-01-01T02:22:55;54.33;;;51.28;;
47381;SDS011;33128;51.580;5.170;2023-01-01T02:29:04;55.83;;;52.63;;
47381;SDS011;33128;51.580;5.170;2023-01-01T02:31:58;55.38;;;52.17;;
47381;SDS011;33128;51.580;5.170;2023-01-01T02:34:31;55.80;;;52.50;;
47381;SDS011;33128;51.580;5.170;2023-01-01T02:37:07;55.20;;;52.00;;
47381;SDS011;33128;51.580;5.170;2023-01-01T02:39:36;53.70;;;50.45;;
47381;SDS011;33128;51.580;5.170;2023-01-01T02:42:06;54.45;;;51.10;;
47381;SDS011;33128;51.580;5.170;2023-01-01T02:44:34;54.95;;;51.55;;
47381;SDS011;33128;51.580;5.170;2023-01-01T02:47:05;55.88;;;52.72;;
47381;SDS011;33128;51.580;5.170;2023-01-01T02:49:32;55.53;;;52.15;;
47381;SDS011;33128;51.580;5.170;2023-01-01T02:52:04;56.80;;;53.58;;
47381;SDS011;33128;51.580;5.170;2023-01-01T02:54:49;57.40;;;54.20;;
47381;SDS011;33128;51.580;5.170;2023-01-01T02:57:26;55.67;;;52.58;;
47381;SDS011;33128;51.580;5.170;2023-01-01T03:03:12;56.97;;;53.78;;
47381;SDS011;33128;51.580;5.170;2023-01-01T03:19:38;57.78;;;54.35;;
47381;SDS011;33128;51.580;5.170;2023-01-01T03:22:06;55.95;;;52.75;;
47381;SDS011;33128;51.580;5.170;2023-01-01T03:24:42;56.58;;;53.33;;
47381;SDS011;33128;51.580;5.170;2023-01-01T03:27:19;57.47;;;54.17;;
47381;SDS011;33128;51.580;5.170;2023-01-01T03:29:50;57.10;;;53.80;;
47381;SDS011;33128;51.580;5.170;2023-01-01T03:32:20;56.38;;;53.28;;
47381;SDS011;33128;51.580;5.170;2023-01-01T03:35:16;55.30;;;52.30;;
47381;SDS011;33128;51.580;5.170;2023-01-01T03:37:50;56.85;;;53.78;;
47381;SDS011;33128;51.580;5.170;2023-01-01T03:40:19;57.38;;;53.97;;
47381;SDS011;33128;51.580;5.170;2023-01-01T03:42:49;57.20;;;53.95;;
47381;SDS011;33128;51.580;5.170;2023-01-01T03:45:19;57.15;;;54.05;;
47381;SDS011;33128;51.580;5.170;2023-01-01T03:47:48;57.22;;;54.00;;
47381;SDS011;33128;51.580;5.170;2023-01-01T03:50:14;57.47;;;54.05;;
47381;SDS011;33128;51.580;5.170;2023-01-01T03:53:00;58.58;;;55.17;;
47381;SDS011;33128;51.580;5.170;2023-01-01T04:00:44;56.97;;;53.88;;
47381;SDS011;33128;51.580;5.170;2023-01-01T04:03:17;57.20;;;54.10;;
47381;SDS011;33128;51.580;5.170;2023-01-01T04:05:48;56.95;;;53.65;;
47381;SDS011;33128;51.580;5.170;2023-01-01T04:08:14;57.85;;;54.08;;
47381;SDS011;33128;51.580;5.170;2023-01-01T04:10:41;55.55;;;52.65;;
47381;SDS011;33128;51.580;5.170;2023-01-01T04:13:09;55.20;;;52.03;;
47381;SDS011;33128;51.580;5.170;2023-01-01T04:15:35;55.65;;;52.25;;
47381;SDS011;33128;51.580;5.170;2023-01-01T04:18:01;56.15;;;53.15;;
47381;SDS011;33128;51.580;5.170;2023-01-01T04:20:26;56.00;;;52.55;;
47381;SDS011;33128;51.580;5.170;2023-01-01T04:22:58;56.15;;;53.15;;
47381;SDS011;33128;51.580;5.170;2023-01-01T04:25:25;55.97;;;52.88;;
47381;SDS011;33128;51.580;5.170;2023-01-01T04:27:54;55.97;;;52.88;;
47381;SDS011;33128;51.580;5.170;2023-01-01T04:30:22;54.90;;;51.72;;
47381;SDS011;33128;51.580;5.170;2023-01-01T04:32:47;55.15;;;52.20;;
47381;SDS011;33128;51.580;5.170;2023-01-01T04:35:13;56.08;;;52.92;;
47381;SDS011;33128;51.580;5.170;2023-01-01T04:37:40;55.83;;;52.80;;
47381;SDS011;33128;51.580;5.170;2023-01-01T04:40:08;55.50;;;52.33;;
47381;SDS011;33128;51.580;5.170;2023-01-01T04:42:34;56.17;;;53.13;;
47381;SDS011;33128;51.580;5.170;2023-01-01T04:45:00;56.28;;;53.10;;
47381;SDS011;33128;51.580;5.170;2023-01-01T04:47:25;56.10;;;52.85;;
47381;SDS011;33128;51.580;5.170;2023-01-01T04:49:51;55.42;;;52.35;;
47381;SDS011;33128;51.580;5.170;2023-01-01T04:52:17;55.50;;;52.40;;
47381;SDS011;33128;51.580;5.170;2023-01-01T04:54:43;56.08;;;53.00;;
47381;SDS011;33128;51.580;5.170;2023-01-01T04:57:09;55.58;;;52.45;;
47381;SDS011;33128;51.580;5.170;2023-01-01T04:59:35;23.50;;;22.25;;
47381;SDS011;33128;51.580;5.170;2023-01-01T05:02:01;23.13;;;22.05;;
47381;SDS011;33128;51.580;5.170;2023-01-01T05:04:27;25.25;;;23.23;;
47381;SDS011;33128;51.580;5.170;2023-01-01T05:06:52;24.08;;;22.90;;
47381;SDS011;33128;51.580;5.170;2023-01-01T05:09:18;23.58;;;22.52;;
47381;SDS011;33128;51.580;5.170;2023-01-01T05:11:43;23.85;;;22.75;;
47381;SDS011;33128;51.580;5.170;2023-01-01T05:14:09;23.90;;;22.80;;
47381;SDS011;33128;51.580;5.170;2023-01-01T05:16:36;24.60;;;23.00;;
47381;SDS011;33128;51.580;5.170;2023-01-01T05:19:06;24.52;;;22.90;;
47381;SDS011;33128;51.580;5.170;2023-01-01T05:21:34;24.73;;;23.20;;
47381;SDS011;33128;51.580;5.170;2023-01-01T05:24:03;23.58;;;22.52;;
47381;SDS011;33128;51.580;5.170;2023-01-01T05:26:32;25.33;;;23.80;;
47381;SDS011;33128;51.580;5.170;2023-01-01T05:29:05;23.33;;;22.23;;
47381;SDS011;33128;51.580;5.170;2023-01-01T05:31:32;23.70;;;22.65;;
47381;SDS011;33128;51.580;5.170;2023-01-01T05:33:59;25.25;;;23.85;;
47381;SDS011;33128;51.580;5.170;2023-01-01T05:36:32;25.33;;;24.13;;
47381;SDS011;33128;51.580;5.170;2023-01-01T05:39:02;26.20;;;24.75;;
47381;SDS011;33128;51.580;5.170;2023-01-01T05:41:29;25.25;;;24.15;;
47381;SDS011;33128;51.580;5.170;2023-01-01T05:43:55;25.42;;;24.05;;
47381;SDS011;33128;51.580;5.170;2023-01-01T05:46:21;25.92;;;24.50;;
47381;SDS011;33128;51.580;5.170;2023-01-01T05:48:48;25.60;;;24.40;;
47381;SDS011;33128;51.580;5.170;2023-01-01T05:51:19;26.00;;;24.65;;
47381;SDS011;33128;51.580;5.170;2023-01-01T05:53:46;26.52;;;24.90;;
47381;SDS011;33128;51.580;5.170;2023-01-01T05:56:13;26.13;;;24.58;;
47381;SDS011;33128;51.580;5.170;2023-01-01T05:58:39;25.20;;;24.13;;
47381;SDS011;33128;51.580;5.170;2023-01-01T06:03:37;26.42;;;24.73;;
47381;SDS011;33128;51.580;5.170;2023-01-01T06:06:07;25.80;;;24.70;;
47381;SDS011;33128;51.580;5.170;2023-01-01T06:08:34;28.63;;;27.40;;
47381;SDS011;33128;51.580;5.170;2023-01-01T06:11:01;56.38;;;53.38;;
47381;SDS011;33128;51.580;5.170;2023-01-01T06:13:28;56.28;;;53.28;;
47381;SDS011;33128;51.580;5.170;2023-01-01T06:15:55;57.78;;;54.13;;
47381;SDS011;33128;51.580;5.170;2023-01-01T06:18:25;57.72;;;54.63;;
47381;SDS011;33128;51.580;5.170;2023-01-01T06:20:53;57.83;;;54.45;;
47381;SDS011;33128;51.580;5.170;2023-01-01T06:23:18;57.60;;;54.30;;
47381;SDS011;33128;51.580;5.170;2023-01-01T06:25:44;56.88;;;53.65;;
47381;SDS011;33128;51.580;5.170;2023-01-01T06:28:10;57.13;;;53.83;;
47381;SDS011;33128;51.580;5.170;2023-01-01T06:30:36;57.03;;;53.67;;
47381;SDS011;33128;51.580;5.170;2023-01-01T06:33:02;57.40;;;54.15;;
47381;SDS011;33128;51.580;5.170;2023-01-01T06:35:28;58.00;;;54.58;;
47381;SDS011;33128;51.580;5.170;2023-01-01T06:37:54;57.25;;;53.75;;
47381;SDS011;33128;51.580;5.170;2023-01-01T06:40:19;56.75;;;53.75;;
47381;SDS011;33128;51.580;5.170;2023-01-01T06:42:45;57.35;;;54.00;;
47381;SDS011;33128;51.580;5.170;2023-01-01T06:45:11;56.67;;;53.38;;
47381;SDS011;33128;51.580;5.170;2023-01-01T06:47:37;55.60;;;52.22;;
47381;SDS011;33128;51.580;5.170;2023-01-01T06:50:03;56.92;;;53.60;;
47381;SDS011;33128;51.580;5.170;2023-01-01T06:52:29;55.95;;;52.95;;
47381;SDS011;33128;51.580;5.170;2023-01-01T06:54:58;56.05;;;52.63;;
47381;SDS011;33128;51.580;5.170;2023-01-01T06:57:23;55.97;;;52.42;;
47381;SDS011;33128;51.580;5.170;2023-01-01T06:59:49;54.70;;;51.78;;
47381;SDS011;33128;51.580;5.170;2023-01-01T07:02:15;55.03;;;51.75;;
47381;SDS011;33128;51.580;5.170;2023-01-01T07:04:40;54.08;;;51.13;;
47381;SDS011;33128;51.580;5.170;2023-01-01T07:07:06;55.63;;;52.63;;
47381;SDS011;33128;51.580;5.170;2023-01-01T07:09:31;55.97;;;52.95;;
47381;SDS011;33128;51.580;5.170;2023-01-01T07:11:57;55.05;;;52.15;;
47381;SDS011;33128;51.580;5.170;2023-01-01T07:14:23;55.50;;;52.40;;
47381;SDS011;33128;51.580;5.170;2023-01-01T07:16:48;56.38;;;53.17;;
47381;SDS011;33128;51.580;5.170;2023-01-01T07:19:14;56.70;;;53.50;;
47381;SDS011;33128;51.580;5.170;2023-01-01T07:21:41;56.13;;;52.92;;
47381;SDS011;33128;51.580;5.170;2023-01-01T07:24:09;54.15;;;51.25;;
47381;SDS011;33128;51.580;5.170;2023-01-01T07:26:36;57.17;;;53.60;;
47381;SDS011;33128;51.580;5.170;2023-01-01T07:29:02;55.72;;;52.47;;
47381;SDS011;33128;51.580;5.170;2023-01-01T07:31:28;55.55;;;52.50;;
47381;SDS011;33128;51.580;5.170;2023-01-01T07:33:53;54.95;;;51.95;;
47381;SDS011;33128;51.580;5.170;2023-01-01T07:36:19;55.10;;;52.10;;
47381;SDS011;33128;51.580;5.170;2023-01-01T07:38:45;54.67;;;51.58;;
47381;SDS011;33128;51.580;5.170;2023-01-01T07:41:10;55.15;;;52.15;;
47381;SDS011;33128;51.580;5.170;2023-01-01T07:43:36;55.75;;;52.75;;
47381;SDS011;33128;51.580;5.170;2023-01-01T07:46:05;56.55;;;53.38;;
47381;SDS011;33128;51.580;5.170;2023-01-01T07:48:30;56.25;;;53.10;;
47381;SDS011;33128;51.580;5.170;2023-01-01T07:50:56;56.45;;;53.45;;
47381;SDS011;33128;51.580;5.170;2023-01-01T07:53:21;55.83;;;52.83;;
47381;SDS011;33128;51.580;5.170;2023-01-01T07:55:47;58.13;;;54.47;;
47381;SDS011;33128;51.580;5.170;2023-01-01T07:58:13;56.78;;;53.65;;
47381;SDS011;33128;51.580;5.170;2023-01-01T08:00:38;56.42;;;53.42;;
47381;SDS011;33128;51.580;5.170;2023-01-01T08:03:04;57.78;;;53.90;;
47381;SDS011;33128;51.580;5.170;2023-01-01T08:05:31;54.92;;;51.92;;
47381;SDS011;33128;51.580;5.170;2023-01-01T08:07:58;54.92;;;52.03;;
47381;SDS011;33128;51.580;5.170;2023-01-01T08:10:24;53.30;;;50.30;;
47381;SDS011;33128;51.580;5.170;2023-01-01T08:12:49;54.92;;;52.00;;
47381;SDS011;33128;51.580;5.170;2023-01-01T08:15:15;53.63;;;50.63;;
47381;SDS011;33128;51.580;5.170;2023-01-01T08:17:41;53.28;;;50.28;;
47381;SDS011;33128;51.580;5.170;2023-01-01T08:20:07;50.85;;;48.08;;
47381;SDS011;33128;51.580;5.170;2023-01-01T08:22:33;52.25;;;49.40;;
47381;SDS011;33128;51.580;5.170;2023-01-01T08:24:59;52.45;;;49.55;;
47381;SDS011;33128;51.580;5.170;2023-01-01T08:27:24;52.88;;;49.85;;
47381;SDS011;33128;51.580;5.170;2023-01-01T08:29:50;52.88;;;50.05;;
47381;SDS011;33128;51.580;5.170;2023-01-01T08:32:15;50.88;;;48.08;;
47381;SDS011;33128;51.580;5.170;2023-01-01T08:34:41;51.67;;;48.55;;
47381;SDS011;33128;51.580;5.170;2023-01-01T08:37:10;50.47;;;47.45;;
47381;SDS011;33128;51.580;5.170;2023-01-01T08:39:37;50.00;;;46.92;;
47381;SDS011;33128;51.580;5.170;2023-01-01T08:42:03;50.40;;;47.67;;
47381;SDS011;33128;51.580;5.170;2023-01-01T08:44:29;50.10;;;47.20;;
47381;SDS011;33128;51.580;5.170;2023-01-01T08:46:54;50.78;;;47.35;;
47381;SDS011;33128;51.580;5.170;2023-01-01T08:49:20;48.85;;;45.25;;
47381;SDS011;33128;51.580;5.170;2023-01-01T08:51:45;49.30;;;45.83;;
47381;SDS011;33128;51.580;5.170;2023-01-01T08:54:11;45.78;;;43.00;;
47381;SDS011;33128;51.580;5.170;2023-01-01T08:56:39;46.42;;;43.72;;
47381;SDS011;33128;51.580;5.170;2023-01-01T08:59:05;48.97;;;45.47;;
47381;SDS011;33128;51.580;5.170;2023-01-01T09:01:30;46.50;;;43.80;;
47381;SDS011;33128;51.580;5.170;2023-01-01T09:03:56;46.22;;;43.42;;
47381;SDS011;33128;51.580;5.170;2023-01-01T09:06:21;46.05;;;43.35;;
47381;SDS011;33128;51.580;5.170;2023-01-01T09:08:47;46.97;;;44.28;;
47381;SDS011;33128;51.580;5.170;2023-01-01T09:11:21;45.90;;;43.30;;
47381;SDS011;33128;51.580;5.170;2023-01-01T09:13:52;47.58;;;44.58;;
47381;SDS011;33128;51.580;5.170;2023-01-01T09:16:18;48.05;;;45.22;;
47381;SDS011;33128;51.580;5.170;2023-01-01T09:18:44;47.20;;;44.38;;
47381;SDS011;33128;51.580;5.170;2023-01-01T09:21:10;46.92;;;44.17;;
47381;SDS011;33128;51.580;5.170;2023-01-01T09:23:36;47.55;;;44.72;;
47381;SDS011;33128;51.580;5.170;2023-01-01T09:26:02;43.60;;;41.10;;
47381;SDS011;33128;51.580;5.170;2023-01-01T09:28:31;44.45;;;41.80;;
47381;SDS011;33128;51.580;5.170;2023-01-01T09:30:57;44.75;;;42.03;;
47381;SDS011;33128;51.580;5.170;2023-01-01T09:33:23;45.45;;;42.85;;
47381;SDS011;33128;51.580;5.170;2023-01-01T09:35:48;43.95;;;41.45;;
47381;SDS011;33128;51.580;5.170;2023-01-01T09:38:14;46.75;;;44.05;;
47381;SDS011;33128;51.580;5.170;2023-01-01T09:40:47;44.50;;;41.97;;
47381;SDS011;33128;51.580;5.170;2023-01-01T09:46:05;43.58;;;40.88;;
47381;SDS011;33128;51.580;5.170;2023-01-01T09:48:32;44.03;;;41.33;;
47381;SDS011;33128;51.580;5.170;2023-01-01T09:51:03;44.13;;;41.63;;
47381;SDS011;33128;51.580;5.170;2023-01-01T09:56:18;43.45;;;40.80;;
47381;SDS011;33128;51.580;5.170;2023-01-01T09:58:49;43.08;;;40.45;;
47381;SDS011;33128;51.580;5.170;2023-01-01T10:03:55;42.75;;;40.25;;
47381;SDS011;33128;51.580;5.170;2023-01-01T10:06:43;43.42;;;40.83;;
47381;SDS011;33128;51.580;5.170;2023-01-01T10:14:53;39.63;;;37.13;;
47381;SDS011;33128;51.580;5.170;2023-01-01T10:17:29;41.33;;;38.63;;
47381;SDS011;33128;51.580;5.170;2023-01-01T10:20:00;43.38;;;40.65;;
47381;SDS011;33128;51.580;5.170;2023-01-01T10:22:39;44.00;;;41.20;;
47381;SDS011;33128;51.580;5.170;2023-01-01T10:25:14;43.25;;;40.75;;
47381;SDS011;33128;51.580;5.170;2023-01-01T10:27:58;42.63;;;40.10;;
47381;SDS011;33128;51.580;5.170;2023-01-01T10:30:39;43.78;;;41.17;;
47381;SDS011;33128;51.580;5.170;2023-01-01T10:33:10;40.65;;;38.15;;
47381;SDS011;33128;51.580;5.170;2023-01-01T10:35:48;42.40;;;39.90;;
47381;SDS011;33128;51.580;5.170;2023-01-01T10:38:23;41.30;;;38.63;;
47381;SDS011;33128;51.580;5.170;2023-01-01T10:40:50;41.92;;;39.42;;
47381;SDS011;33128;51.580;5.170;2023-01-01T10:43:20;43.53;;;40.85;;
47381;SDS011;33128;51.580;5.170;2023-01-01T10:45:52;44.20;;;41.70;;
47381;SDS011;33128;51.580;5.170;2023-01-01T10:48:20;43.47;;;40.78;;
47381;SDS011;33128;51.580;5.170;2023-01-01T10:56:07;44.13;;;41.53;;
47381;SDS011;33128;51.580;5.170;2023-01-01T10:58:38;41.63;;;39.22;;
47381;SDS011;33128;51.580;5.170;2023-01-01T11:01:18;44.42;;;41.90;;
47381;SDS011;33128;51.580;5.170;2023-01-01T11:04:19;43.45;;;40.95;;
47381;SDS011;33128;51.580;5.170;2023-01-01T11:06:44;41.97;;;39.47;;
47381;SDS011;33128;51.580;5.170;2023-01-01T11:17:02;41.88;;;39.28;;
47381;SDS011;33128;51.580;5.170;2023-01-01T11:21:56;42.13;;;39.58;;
47381;SDS011;33128;51.580;5.170;2023-01-01T11:24:23;39.85;;;37.45;;
47381;SDS011;33128;51.580;5.170;2023-01-01T11:27:10;40.78;;;38.22;;
47381;SDS011;33128;51.580;5.170;2023-01-01T11:30:12;38.83;;;36.35;;
47381;SDS011;33128;51.580;5.170;2023-01-01T11:32:46;39.13;;;36.78;;
47381;SDS011;33128;51.580;5.170;2023-01-01T11:35:15;41.92;;;38.97;;
47381;SDS011;33128;51.580;5.170;2023-01-01T11:37:44;41.75;;;39.25;;
47381;SDS011;33128;51.580;5.170;2023-01-01T11:41:12;39.95;;;37.55;;
47381;SDS011;33128;51.580;5.170;2023-01-01T11:43:15;40.53;;;38.03;;
47381;SDS011;33128;51.580;5.170;2023-01-01T11:45:46;42.28;;;39.70;;
47381;SDS011;33128;51.580;5.170;2023-01-01T11:50:50;43.65;;;40.33;;
47381;SDS011;33128;51.580;5.170;2023-01-01T11:55:47;43.33;;;39.60;;
47381;SDS011;33128;51.580;5.170;2023-01-01T11:58:39;41.50;;;38.67;;
47381;SDS011;33128;51.580;5.170;2023-01-01T12:01:18;40.10;;;37.58;;
47381;SDS011;33128;51.580;5.170;2023-01-01T12:04:06;39.95;;;37.50;;
47381;SDS011;33128;51.580;5.170;2023-01-01T12:06:37;40.67;;;37.97;;
47381;SDS011;33128;51.580;5.170;2023-01-01T12:09:43;44.10;;;40.97;;
47381;SDS011;33128;51.580;5.170;2023-01-01T12:12:36;45.05;;;42.33;;
47381;SDS011;33128;51.580;5.170;2023-01-01T12:15:25;45.83;;;43.00;;
47381;SDS011;33128;51.580;5.170;2023-01-01T12:18:34;44.05;;;41.45;;
47381;SDS011;33128;51.580;5.170;2023-01-01T12:21:06;44.28;;;41.53;;
47381;SDS011;33128;51.580;5.170;2023-01-01T12:23:38;46.05;;;43.33;;
47381;SDS011;33128;51.580;5.170;2023-01-01T12:26:19;46.03;;;43.05;;
47381;SDS011;33128;51.580;5.170;2023-01-01T12:29:27;46.75;;;43.80;;
47381;SDS011;33128;51.580;5.170;2023-01-01T12:37:35;42.63;;;39.92;;
47381;SDS011;33128;51.580;5.170;2023-01-01T12:40:29;42.30;;;39.55;;
47381;SDS011;33128;51.580;5.170;2023-01-01T12:43:07;42.30;;;39.60;;
47381;SDS011;33128;51.580;5.170;2023-01-01T12:54:17;41.80;;;39.00;;
47381;SDS011;33128;51.580;5.170;2023-01-01T12:59:36;43.00;;;40.20;;
47381;SDS011;33128;51.580;5.170;2023-01-01T13:02:11;43.75;;;40.90;;
47381;SDS011;33128;51.580;5.170;2023-01-01T13:04:42;42.17;;;39.30;;
47381;SDS011;33128;51.580;5.170;2023-01-01T13:07:11;42.33;;;39.42;;
47381;SDS011;33128;51.580;5.170;2023-01-01T13:09:40;43.88;;;40.97;;
47381;SDS011;33128;51.580;5.170;2023-01-01T13:12:15;44.67;;;41.67;;
47381;SDS011;33128;51.580;5.170;2023-01-01T13:14:43;43.88;;;41.08;;
47381;SDS011;33128;51.580;5.170;2023-01-01T13:17:18;43.78;;;40.90;;
47381;SDS011;33128;51.580;5.170;2023-01-01T13:19:45;44.45;;;41.40;;
47381;SDS011;33128;51.580;5.170;2023-01-01T13:35:36;41.38;;;38.88;;
47381;SDS011;33128;51.580;5.170;2023-01-01T13:38:02;43.67;;;40.97;;
47381;SDS011;33128;51.580;5.170;2023-01-01T13:40:28;43.15;;;40.28;;
47381;SDS011;33128;51.580;5.170;2023-01-01T13:45:31;41.38;;;38.45;;
47381;SDS011;33128;51.580;5.170;2023-01-01T13:48:08;43.47;;;40.50;;
47381;SDS011;33128;51.580;5.170;2023-01-01T13:50:55;47.28;;;44.40;;
47381;SDS011;33128;51.580;5.170;2023-01-01T13:59:11;41.58;;;38.90;;
47381;SDS011;33128;51.580;5.170;2023-01-01T14:01:48;41.67;;;39.10;;
47381;SDS011;33128;51.580;5.170;2023-01-01T14:07:39;42.83;;;40.13;;
47381;SDS011;33128;51.580;5.170;2023-01-01T14:10:15;43.47;;;40.88;;
47381;SDS011;33128;51.580;5.170;2023-01-01T14:12:41;40.45;;;37.95;;
47381;SDS011;33128;51.580;5.170;2023-01-01T14:15:13;42.13;;;39.33;;
47381;SDS011;33128;51.580;5.170;2023-01-01T14:17:41;41.13;;;38.70;;
47381;SDS011;33128;51.580;5.170;2023-01-01T14:20:08;42.53;;;39.92;;
47381;SDS011;33128;51.580;5.170;2023-01-01T14:22:42;44.45;;;41.75;;
47381;SDS011;33128;51.580;5.170;2023-01-01T14:25:27;45.30;;;42.70;;
47381;SDS011;33128;51.580;5.170;2023-01-01T14:27:54;43.17;;;40.53;;
47381;SDS011;33128;51.580;5.170;2023-01-01T14:30:22;41.78;;;39.28;;
47381;SDS011;33128;51.580;5.170;2023-01-01T14:32:55;41.67;;;39.28;;
47381;SDS011;33128;51.580;5.170;2023-01-01T14:35:21;40.70;;;38.20;;
47381;SDS011;33128;51.580;5.170;2023-01-01T14:37:47;41.10;;;38.55;;
47381;SDS011;33128;51.580;5.170;2023-01-01T14:40:23;44.38;;;41.20;;
47381;SDS011;33128;51.580;5.170;2023-01-01T14:42:57;44.00;;;41.10;;
47381;SDS011;33128;51.580;5.170;2023-01-01T14:45:28;43.55;;;40.80;;
47381;SDS011;33128;51.580;5.170;2023-01-01T14:47:56;46.13;;;43.33;;
47381;SDS011;33128;51.580;5.170;2023-01-01T14:50:23;44.88;;;42.08;;
47381;SDS011;33128;51.580;5.170;2023-01-01T14:52:52;45.55;;;42.80;;
47381;SDS011;33128;51.580;5.170;2023-01-01T14:55:30;46.40;;;43.50;;
47381;SDS011;33128;51.580;5.170;2023-01-01T14:57:59;48.00;;;45.20;;
47381;SDS011;33128;51.580;5.170;2023-01-01T15:00:27;47.53;;;44.78;;
47381;SDS011;33128;51.580;5.170;2023-01-01T15:02:54;48.30;;;45.33;;
47381;SDS011;33128;51.580;5.170;2023-01-01T15:05:32;48.45;;;45.58;;
47381;SDS011;33128;51.580;5.170;2023-01-01T15:07:59;49.20;;;46.40;;
47381;SDS011;33128;51.580;5.170;2023-01-01T15:10:27;49.92;;;46.92;;
47381;SDS011;33128;51.580;5.170;2023-01-01T15:12:54;49.35;;;46.38;;
47381;SDS011;33128;51.580;5.170;2023-01-01T15:18:04;50.60;;;47.50;;
47381;SDS011;33128;51.580;5.170;2023-01-01T15:20:39;51.03;;;48.03;;
47381;SDS011;33128;51.580;5.170;2023-01-01T15:23:05;51.72;;;48.72;;
47381;SDS011;33128;51.580;5.170;2023-01-01T15:25:36;49.28;;;46.45;;
47381;SDS011;33128;51.580;5.170;2023-01-01T15:28:13;48.28;;;45.17;;
47381;SDS011;33128;51.580;5.170;2023-01-01T15:30:55;48.97;;;46.17;;
47381;SDS011;33128;51.580;5.170;2023-01-01T15:33:22;48.70;;;45.55;;
47381;SDS011;33128;51.580;5.170;2023-01-01T15:35:48;48.92;;;46.22;;
47381;SDS011;33128;51.580;5.170;2023-01-01T15:40:46;47.97;;;45.10;;
47381;SDS011;33128;51.580;5.170;2023-01-01T15:43:27;47.50;;;44.53;;
47381;SDS011;33128;51.580;5.170;2023-01-01T15:45:58;47.08;;;44.22;;
47381;SDS011;33128;51.580;5.170;2023-01-01T15:48:46;47.25;;;44.40;;
47381;SDS011;33128;51.580;5.170;2023-01-01T15:51:16;47.70;;;44.58;;
47381;SDS011;33128;51.580;5.170;2023-01-01T15:56:19;45.53;;;42.83;;
47381;SDS011;33128;51.580;5.170;2023-01-01T15:58:47;46.75;;;44.05;;
47381;SDS011;33128;51.580;5.170;2023-01-01T16:01:21;47.05;;;44.28;;
47381;SDS011;33128;51.580;5.170;2023-01-01T16:03:50;46.58;;;43.67;;
47381;SDS011;33128;51.580;5.170;2023-01-01T16:06:22;45.65;;;43.05;;
47381;SDS011;33128;51.580;5.170;2023-01-01T16:08:47;44.30;;;41.70;;
47381;SDS011;33128;51.580;5.170;2023-01-01T16:11:13;46.30;;;43.50;;
47381;SDS011;33128;51.580;5.170;2023-01-01T16:13:39;43.72;;;41.03;;
47381;SDS011;33128;51.580;5.170;2023-01-01T16:16:05;42.58;;;39.88;;
47381;SDS011;33128;51.580;5.170;2023-01-01T16:18:48;41.42;;;39.03;;
47381;SDS011;33128;51.580;5.170;2023-01-01T16:21:13;42.97;;;40.45;;
47381;SDS011;33128;51.580;5.170;2023-01-01T16:23:39;41.72;;;39.22;;
47381;SDS011;33128;51.580;5.170;2023-01-01T16:26:07;41.85;;;39.35;;
47381;SDS011;33128;51.580;5.170;2023-01-01T16:28:33;42.05;;;39.55;;
47381;SDS011;33128;51.580;5.170;2023-01-01T16:30:58;41.90;;;39.40;;
47381;SDS011;33128;51.580;5.170;2023-01-01T16:33:24;43.72;;;41.10;;